Time;durP1;ratioP1;P1;durP2;ratioP2;P2;SDS_P1;SDS_P2;PMS_P1;PMS_P2;Temp;Humidity;BMP_temperature;BMP_pressure;BME280_temperature;BME280_humidity;BME280_pressure;Samples;Min_cycle;Max_cycle;Signal;HPM_P1;HPM_P2
2021/03/26 00:00:01;;;;;;;9.65;4.32;;;8.60;99.90;;;8.20;100.00;101648.31;4157443;28;19916;-76
2021/03/26 00:02:03;;;;;;;5.63;4.53;;;8.50;99.90;;;8.26;100.00;101644.38;4152781;28;20061;-76
2021/03/26 00:04:07;;;;;;;9.27;4.05;;;8.50;99.90;;;8.14;100.00;101640.91;4167893;28;20026;-76
2021/03/26 00:06:12;;;;;;;;;;;8.40;99.90;;;8.10;100.00;101641.25;4153231;28;20060;-76
2021/03/26 00:08:15;;;;;;;13.00;6.13;;;8.40;99.90;;;8.19;100.00;101643.16;4152610;28;20381;-75
2021/03/26 00:10:17;;;;;;;8.05;5.35;;;8.40;99.90;;;8.33;100.00;101635.09;4152559;28;20045;-75
2021/03/26 00:12:17;;;;;;;10.00;4.97;;;8.50;99.90;;;8.45;100.00;101631.50;4152733;28;20030;-76
2021/03/26 00:14:19;;;;;;;10.65;4.43;;;8.60;99.90;;;8.45;100.00;101628.88;4135275;28;20053;-76
2021/03/26 00:16:21;;;;;;;10.65;4.80;;;8.70;99.90;;;8.27;100.00;101615.38;4135031;28;20157;-76
2021/03/26 00:18:22;;;;;;;13.82;5.40;;;8.60;99.90;;;8.36;100.00;101626.97;4134961;28;20034;-76
2021/03/26 00:20:23;;;;;;;9.65;4.85;;;8.70;99.90;;;8.42;100.00;101618.59;4152639;28;20037;-76
2021/03/26 00:22:24;;;;;;;7.38;5.10;;;8.70;99.90;;;8.43;100.00;101617.63;4152247;28;20029;-76
2021/03/26 00:24:25;;;;;;;11.32;5.03;;;8.70;99.90;;;8.47;100.00;101621.72;4134923;28;20133;-76
2021/03/26 00:26:26;;;;;;;6.90;4.45;;;8.80;99.90;;;8.42;100.00;101621.25;4152420;28;20026;-75
2021/03/26 00:28:27;;;;;;;10.50;4.85;;;8.80;99.90;;;8.56;100.00;101622.75;4152546;28;20485;-76
2021/03/26 00:30:28;;;;;;;9.15;4.75;;;8.90;99.90;;;8.46;100.00;101627.06;4152472;28;20030;-75
2021/03/26 00:32:29;;;;;;;7.97;4.75;;;8.90;99.90;;;8.55;100.00;101618.44;4152344;28;20026;-76
2021/03/26 00:34:30;;;;;;;8.23;4.28;;;8.90;99.90;;;8.61;100.00;101617.97;4152264;28;20026;-76
2021/03/26 00:36:31;;;;;;;7.38;4.95;;;9.00;99.90;;;8.78;100.00;101620.91;4152600;28;20018;-76
2021/03/26 00:38:32;;;;;;;9.13;4.70;;;9.10;99.90;;;8.79;100.00;101614.72;4152179;28;20465;-76
2021/03/26 00:40:34;;;;;;;9.77;4.13;;;9.20;99.90;;;8.82;100.00;101611.84;4152266;28;20022;-76
2021/03/26 00:42:35;;;;;;;15.85;5.78;;;9.20;99.90;;;8.77;100.00;101607.91;4152100;28;20033;-75
2021/03/26 00:44:36;;;;;;;7.35;4.63;;;9.20;99.90;;;8.93;100.00;101592.53;4152277;28;20389;-76
2021/03/26 00:46:40;;;;;;;8.13;4.10;;;9.30;99.90;;;9.05;100.00;101603.88;4152293;28;20026;-76
2021/03/26 00:48:41;;;;;;;12.38;4.43;;;9.40;99.90;;;8.87;100.00;101593.88;4152159;28;20076;-75
2021/03/26 00:50:50;;;;;;;8.75;4.55;;;9.40;99.90;;;8.85;100.00;101585.28;4134648;28;20493;-76
2021/03/26 00:52:52;;;;;;;9.07;4.35;;;9.40;99.90;;;9.00;100.00;101604.25;4134739;28;20034;-76
2021/03/26 00:54:52;;;;;;;7.18;4.00;;;9.40;99.90;;;8.98;100.00;101595.66;4151888;28;20061;-75
2021/03/26 00:56:53;;;;;;;9.75;4.53;;;9.40;99.90;;;9.00;100.00;101584.97;4151950;28;20030;-76
2021/03/26 00:58:54;;;;;;;6.75;3.70;;;9.50;99.90;;;9.13;100.00;101591.75;4147632;28;20400;-76
2021/03/26 01:00:56;;;;;;;10.48;3.90;;;9.60;99.90;;;9.16;100.00;101594.16;4151991;28;20080;-76
2021/03/26 01:02:57;;;;;;;9.07;3.88;;;9.60;99.90;;;9.19;100.00;101586.00;4159271;28;20036;-75
2021/03/26 01:04:58;;;;;;;4.68;3.33;;;9.60;99.90;;;9.19;100.00;101572.00;4142958;28;20401;-76
2021/03/26 01:06:59;;;;;;;7.43;3.40;;;9.60;99.90;;;9.25;100.00;101590.75;4151581;28;20045;-75
2021/03/26 01:09:00;;;;;;;5.50;3.33;;;9.70;99.90;;;9.26;100.00;101594.19;4134564;28;20030;-76
2021/03/26 01:11:10;;;;;;;6.50;3.30;;;9.70;99.90;;;9.18;100.00;101586.09;4154752;28;20100;-76
2021/03/26 01:13:12;;;;;;;7.80;3.55;;;9.70;99.90;;;9.23;100.00;101589.19;4157329;28;20033;-76
2021/03/26 01:15:17;;;;;;;10.13;3.75;;;9.70;99.90;;;9.29;100.00;101589.53;4157385;28;20022;-76
2021/03/26 01:17:18;;;;;;;;;;;9.70;99.90;;;9.19;100.00;101587.78;4157906;28;20080;-76
2021/03/26 01:19:19;;;;;;;6.95;3.00;;;9.70;99.90;;;9.13;100.00;101590.94;4157407;28;20353;-76
2021/03/26 01:21:29;;;;;;;7.68;3.75;;;9.70;99.90;;;9.22;100.00;101583.13;4139751;28;20088;-75
2021/03/26 01:23:30;;;;;;;8.82;3.88;;;9.70;99.90;;;9.14;100.00;101580.25;4157173;28;20462;-75
2021/03/26 01:25:38;;;;;;;10.77;3.45;;;9.70;99.90;;;9.20;100.00;101585.00;4139812;28;20405;-76
2021/03/26 01:27:39;;;;;;;10.75;3.40;;;9.70;99.90;;;9.11;100.00;101577.88;4157264;28;20037;-75
2021/03/26 01:29:40;;;;;;;7.47;3.63;;;9.70;99.90;;;9.12;100.00;101573.44;4157281;28;20022;-76
2021/03/26 01:31:42;;;;;;;5.07;2.42;;;9.70;99.90;;;9.16;100.00;101574.88;4139945;28;20066;-76
2021/03/26 01:33:45;;;;;;;6.68;3.55;;;9.70;99.90;;;9.21;100.00;101575.31;4157204;28;20029;-76
2021/03/26 01:35:46;;;;;;;6.07;2.30;;;9.70;99.90;;;9.35;100.00;101562.69;4157249;28;20395;-76
2021/03/26 01:37:47;;;;;;;8.45;2.50;;;9.70;99.90;;;9.25;100.00;101566.22;4156896;28;20029;-76
2021/03/26 01:39:48;;;;;;;8.27;3.25;;;9.70;99.90;;;9.22;99.46;101562.06;4157468;28;20026;-76
2021/03/26 01:41:49;;;;;;;7.38;2.40;;;9.70;99.90;;;9.27;99.28;101565.13;4139650;28;20026;-76
2021/03/26 01:43:50;;;;;;;6.28;2.28;;;9.80;99.90;;;9.25;98.93;101566.22;4139899;28;20034;-75
2021/03/26 01:45:53;;;;;;;6.55;2.25;;;9.70;99.90;;;9.25;98.96;101560.97;4157142;28;20040;-76
2021/03/26 01:47:55;;;;;;;5.10;2.22;;;9.80;99.90;;;9.30;98.98;101553.50;4139768;28;20101;-75
2021/03/26 01:49:56;;;;;;;7.63;2.40;;;9.80;99.90;;;9.35;98.92;101554.78;4139728;28;20065;-75
2021/03/26 01:51:57;;;;;;;6.80;2.50;;;9.80;99.90;;;9.33;98.17;101545.34;4156845;28;20033;-76
2021/03/26 01:54:00;;;;;;;6.43;2.47;;;9.80;99.90;;;9.39;96.88;101552.72;4157002;28;20086;-75
2021/03/26 01:56:03;;;;;;;5.47;1.80;;;9.90;99.90;;;9.24;97.53;101522.41;4139528;28;20085;-76
2021/03/26 01:58:04;;;;;;;4.07;1.80;;;9.90;99.90;;;9.31;97.09;101539.38;4132128;28;20023;-75
2021/03/26 02:00:14;;;;;;;6.20;2.30;;;9.90;99.90;;;9.40;96.56;101539.47;4161050;28;20084;-76
2021/03/26 02:02:22;;;;;;;6.97;1.95;;;9.80;99.90;;;9.39;96.61;101536.94;4140204;28;20421;-75
2021/03/26 02:04:40;;;;;;;6.97;3.17;;;9.90;99.90;;;9.38;96.75;101530.84;4154511;28;20029;-76
2021/03/26 02:06:46;;;;;;;3.55;1.83;;;9.80;99.90;;;9.40;95.94;101536.81;4139344;28;20042;-76
2021/03/26 02:08:48;;;;;;;3.95;2.00;;;9.80;99.90;;;9.38;96.54;101530.84;4139797;28;20030;-76
2021/03/26 02:10:49;;;;;;;3.92;1.83;;;9.80;99.90;;;9.44;96.14;101524.22;4156983;28;20029;-76
2021/03/26 02:13:01;;;;;;;4.25;2.13;;;9.80;99.90;;;9.37;96.09;101517.81;4156934;28;20044;-75
2021/03/26 02:15:24;;;;;;;5.03;1.75;;;9.80;99.90;;;9.40;96.19;101522.81;4139752;28;20026;-75
2021/03/26 02:17:31;;;;;;;7.40;2.33;;;9.80;99.90;;;9.27;96.67;101511.63;4140651;28;20026;-76
2021/03/26 02:19:47;;;;;;;9.15;2.20;;;9.80;99.90;;;9.26;95.60;101517.84;4156857;28;20030;-76
2021/03/26 02:21:48;;;;;;;3.30;1.63;;;9.80;99.90;;;9.25;95.75;101511.78;4155887;28;20038;-75
2021/03/26 02:23:52;;;;;;;4.82;2.20;;;9.70;99.90;;;9.32;95.62;101510.28;4136254;28;20034;-75
2021/03/26 02:25:58;;;;;;;4.70;1.90;;;9.80;99.90;;;9.37;94.96;101515.19;4154333;28;20052;-76
2021/03/26 02:27:58;;;;;;;2.97;1.83;;;9.80;99.90;;;9.34;95.00;101504.91;4136820;28;20480;-75
2021/03/26 02:30:07;;;;;;;4.82;2.08;;;9.80;99.90;;;9.23;94.81;101502.31;4136832;28;20022;-75
2021/03/26 02:32:30;;;;;;;3.45;1.30;;;9.80;99.90;;;9.19;95.36;101490.41;4137603;28;20054;-76
2021/03/26 02:34:31;;;;;;;5.07;1.58;;;9.70;99.90;;;9.35;94.39;101503.91;4139478;28;20127;-75
2021/03/26 02:36:41;;;;;;;4.70;1.50;;;9.80;99.90;;;9.28;94.16;101497.53;4136558;28;20030;-75
2021/03/26 02:38:56;;;;;;;3.85;1.88;;;9.70;99.90;;;9.24;94.26;101482.94;4137103;28;20034;-75
2021/03/26 02:41:48;;;;;;;4.43;1.48;;;9.70;99.90;;;9.29;93.63;101491.28;4137916;28;20089;-75
2021/03/26 02:44:22;;;;;;;3.95;1.90;;;9.70;99.90;;;9.25;94.23;101481.97;4137445;28;20038;-76
2021/03/26 02:46:54;;;;;;;3.90;1.75;;;9.60;99.90;;;9.26;93.19;101479.19;4153945;28;20112;-76
2021/03/26 02:49:19;;;;;;;4.53;1.73;;;9.60;99.90;;;9.10;93.62;101470.94;4153656;28;20060;-76
2021/03/26 02:51:45;;;;;;;3.55;1.40;;;9.50;99.90;;;9.20;92.95;101473.66;4137674;28;20034;-75
2021/03/26 02:54:12;;;;;;;4.07;1.92;;;9.50;99.90;;;9.18;92.82;101475.56;4138739;28;20085;-76
2021/03/26 02:56:25;;;;;;;4.30;1.58;;;9.40;99.90;;;9.11;93.03;101464.69;4153814;28;20576;-76
2021/03/26 02:58:33;;;;;;;5.18;1.88;;;9.40;99.90;;;9.01;94.14;101471.72;4148469;28;20046;-76
2021/03/26 03:00:52;;;;;;;5.28;1.83;;;9.40;99.90;;;8.97;94.59;101469.44;4152936;28;21065;-76
2021/03/26 03:02:57;;;;;;;3.83;1.50;;;9.30;99.90;;;8.84;93.82;101461.78;4143217;28;20036;-75
2021/03/26 03:05:14;;;;;;;2.22;1.20;;;9.20;99.90;;;8.96;93.70;101459.91;4144578;28;20033;-76
2021/03/26 03:07:31;;;;;;;3.53;1.70;;;9.20;99.90;;;9.06;93.46;101460.78;4136547;28;20042;-75
2021/03/26 03:09:37;;;;;;;3.83;1.80;;;9.30;99.90;;;9.12;93.59;101453.22;4153690;28;20018;-75
2021/03/26 03:12:12;;;;;;;5.70;2.33;;;9.40;99.90;;;9.13;92.87;101430.38;4153540;28;20022;-75
2021/03/26 03:14:38;;;;;;;4.05;1.50;;;9.50;99.90;;;9.21;92.77;101444.56;4121782;28;20027;-76
2021/03/26 03:16:58;;;;;;;2.35;1.45;;;9.60;99.90;;;9.33;93.36;101445.31;4136478;28;20037;-76
2021/03/26 03:19:29;;;;;;;2.90;1.70;;;9.70;99.90;;;9.31;92.76;101444.59;4136623;28;20082;-75
2021/03/26 03:21:40;;;;;;;4.43;1.52;;;9.70;99.90;;;9.25;92.71;101439.88;4149775;28;20404;-76
2021/03/26 03:23:57;;;;;;;3.10;1.40;;;9.80;99.90;;;9.26;93.17;101441.50;4136816;28;20030;-75
2021/03/26 03:26:13;;;;;;;4.57;2.17;;;9.80;99.90;;;9.29;92.75;101443.88;4153492;28;20112;-75
2021/03/26 03:28:41;;;;;;;3.58;1.52;;;9.80;99.90;;;9.39;92.44;101442.16;4137146;28;20026;-76
2021/03/26 03:31:28;;;;;;;2.45;1.70;;;9.80;99.90;;;9.44;92.26;101446.03;4119620;28;20071;-76
2021/03/26 03:33:54;;;;;;;4.03;1.40;;;9.90;99.90;;;9.53;92.28;101435.72;4151992;28;20054;-76
2021/03/26 03:36:00;;;;;;;5.95;2.03;;;9.90;99.90;;;9.59;92.36;101430.72;4153073;28;20034;-76
2021/03/26 03:38:22;;;;;;;3.10;1.48;;;10.00;99.90;;;9.43;92.09;101425.13;4135959;28;20031;-76
2021/03/26 03:40:38;;;;;;;3.95;1.60;;;9.90;99.90;;;9.40;92.04;101423.59;4153263;28;20037;-75
2021/03/26 03:42:57;;;;;;;5.90;2.03;;;9.90;99.90;;;9.48;91.11;101425.56;4136265;28;20048;-76
2021/03/26 03:45:36;;;;;;;3.72;1.67;;;9.80;99.90;;;9.23;92.29;101423.34;4136454;28;20108;-75
2021/03/26 03:47:48;;;;;;;3.08;1.70;;;9.70;99.90;;;9.07;92.29;101404.56;4136609;28;20113;-75
2021/03/26 03:50:04;;;;;;;4.07;1.90;;;9.70;99.90;;;9.20;92.20;101419.19;4135799;28;20033;-76
2021/03/26 03:52:21;;;;;;;2.60;1.45;;;9.60;99.90;;;9.16;93.45;101423.06;4152715;28;20029;-75
2021/03/26 03:54:41;;;;;;;3.42;1.60;;;9.60;99.90;;;9.16;92.58;101414.31;4135632;28;20179;-75
2021/03/26 03:56:54;;;;;;;5.15;1.40;;;9.50;99.90;;;9.16;92.48;101412.53;4136258;28;20062;-76
2021/03/26 03:59:12;;;;;;;6.10;1.50;;;9.60;99.90;;;9.28;92.42;101408.84;4149314;28;20035;-75
2021/03/26 04:01:22;;;;;;;3.95;1.38;;;9.60;99.90;;;9.28;92.46;101402.75;4152917;28;20381;-76
2021/03/26 04:03:32;;;;;;;3.20;1.45;;;9.70;99.90;;;9.42;91.78;101415.56;4149668;28;20120;-76
2021/03/26 04:06:06;;;;;;;4.93;1.90;;;9.70;99.90;;;9.29;92.10;101404.38;4156668;28;20033;-75
2021/03/26 04:08:46;;;;;;;5.13;2.03;;;9.70;99.90;;;9.19;92.69;101404.38;4153443;28;20092;-76
2021/03/26 04:10:57;;;;;;;5.88;2.42;;;9.70;99.90;;;9.30;91.88;101401.66;4168498;28;20033;-76
2021/03/26 04:13:20;;;;;;;3.03;1.85;;;9.70;99.90;;;9.35;91.79;101402.06;4152160;28;20105;-75
2021/03/26 04:15:30;;;;;;;5.93;2.00;;;9.80;99.90;;;9.24;91.85;101403.97;4153821;28;20390;-76
2021/03/26 04:18:18;;;;;;;6.10;1.73;;;9.70;99.90;;;9.19;92.13;101404.38;4151311;28;20041;-76
2021/03/26 04:20:45;;;;;;;6.30;1.70;;;9.60;99.90;;;9.05;92.00;101380.19;4163898;28;20038;-76
2021/03/26 04:22:54;;;;;;;4.80;1.52;;;9.60;99.90;;;9.17;92.40;101400.22;4150884;28;21360;-75
2021/03/26 04:25:02;;;;;;;6.50;1.95;;;9.60;99.90;;;9.22;92.24;101398.84;4151704;28;20030;-75
2021/03/26 04:27:17;;;;;;;5.90;1.75;;;9.60;99.90;;;9.10;92.16;101368.31;4151924;28;20571;-76
2021/03/26 04:29:59;;;;;;;3.17;1.38;;;9.60;99.90;;;9.17;92.63;101398.38;4151761;28;20040;-75
2021/03/26 04:32:08;;;;;;;4.53;1.85;;;9.60;99.90;;;9.15;92.48;101389.78;4168845;28;20030;-76
2021/03/26 04:34:10;;;;;;;3.85;1.55;;;9.60;99.90;;;9.13;92.83;101375.94;4151716;28;20425;-75
2021/03/26 04:36:15;;;;;;;4.65;1.70;;;9.60;99.90;;;9.17;92.86;101385.22;4151093;28;20038;-75
2021/03/26 04:38:25;;;;;;;3.28;2.08;;;9.60;99.90;;;9.25;92.69;101381.94;4151256;28;20029;-76
2021/03/26 04:40:36;;;;;;;4.32;1.83;;;9.60;99.90;;;9.25;92.55;101388.06;4151675;28;20088;-76
2021/03/26 04:43:15;;;;;;;4.30;2.17;;;9.70;99.90;;;9.29;92.24;101383.34;4168532;28;20112;-76
2021/03/26 04:46:01;;;;;;;2.97;1.45;;;9.60;99.90;;;9.24;91.63;101375.00;4145104;28;20693;-76
2021/03/26 04:48:10;;;;;;;;;;;9.70;99.90;;;9.20;91.67;101374.44;4168656;28;20028;-76
2021/03/26 04:50:30;;;;;;;3.05;1.67;;;9.60;99.90;;;9.08;92.56;101372.03;4151492;28;20292;-75
2021/03/26 04:52:40;;;;;;;5.15;1.60;;;9.70;99.90;;;9.04;92.63;101360.09;4151218;28;20032;-76
2021/03/26 04:54:50;;;;;;;4.63;1.75;;;9.60;99.90;;;9.14;91.51;101361.78;4151910;28;20033;-75
2021/03/26 04:57:05;;;;;;;4.50;1.80;;;9.60;99.90;;;9.03;91.77;101355.78;4150897;28;20509;-75
2021/03/26 04:59:10;;;;;;;5.13;1.75;;;9.60;99.90;;;9.07;92.50;101367.72;4151877;28;20405;-76
2021/03/26 05:01:17;;;;;;;3.22;1.77;;;9.50;99.90;;;8.94;93.19;101367.09;4168222;28;20028;-75
2021/03/26 05:03:31;;;;;;;4.90;1.67;;;9.40;99.90;;;9.07;92.91;101358.03;4157479;28;20086;-76
2021/03/26 05:05:38;;;;;;;4.07;1.63;;;9.40;99.90;;;9.11;92.90;101369.16;4135572;28;20150;-76
2021/03/26 05:07:44;;;;;;;6.55;1.70;;;9.40;99.90;;;9.18;92.14;101363.22;4134912;28;20285;-76
2021/03/26 05:09:51;;;;;;;5.15;1.70;;;9.50;99.90;;;9.04;93.24;101352.19;4134833;28;20035;-76
2021/03/26 05:12:04;;;;;;;3.45;1.70;;;9.50;99.90;;;9.05;93.14;101362.59;4134960;28;20026;-76
2021/03/26 05:14:11;;;;;;;4.45;1.55;;;9.40;99.90;;;9.01;93.72;101353.31;4135210;28;20030;-75
2021/03/26 05:17:19;;;;;;;3.67;1.52;;;9.40;99.90;;;8.87;94.38;101357.09;4152046;28;20101;-76
2021/03/26 05:19:30;;;;;;;5.90;2.33;;;9.30;99.90;;;8.83;94.96;101355.69;4134569;28;20070;-76
2021/03/26 05:21:43;;;;;;;2.50;1.70;;;9.20;99.90;;;8.79;94.70;101354.28;4135043;28;20018;-75
2021/03/26 05:23:56;;;;;;;3.20;1.65;;;9.20;99.90;;;8.98;93.52;101358.81;4134862;28;20089;-75
2021/03/26 05:26:00;;;;;;;6.00;2.00;;;9.20;99.90;;;9.11;94.06;101353.34;4151913;28;20485;-76
2021/03/26 05:28:08;;;;;;;7.28;2.75;;;9.30;99.90;;;8.99;94.85;101347.31;4134310;28;20031;-76
2021/03/26 05:30:10;;;;;;;3.03;1.50;;;9.40;99.90;;;9.03;95.15;101353.16;4135111;28;20109;-76
2021/03/26 05:32:27;;;;;;;4.18;1.40;;;9.40;99.90;;;9.11;94.00;101348.09;4151976;28;20026;-76
2021/03/26 05:34:52;;;;;;;3.88;1.80;;;9.40;99.90;;;9.23;94.36;101362.78;4135130;28;20030;-76
2021/03/26 05:37:19;;;;;;;3.33;1.45;;;9.50;99.90;;;9.20;94.14;101361.28;4135632;28;20030;-75
2021/03/26 05:39:26;;;;;;;5.63;2.20;;;9.60;99.90;;;9.26;94.44;101357.28;4136804;28;20461;-76
2021/03/26 05:42:14;;;;;;;5.30;1.98;;;9.60;99.90;;;9.21;94.58;101355.06;4134643;28;20030;-75
2021/03/26 05:44:33;;;;;;;3.65;1.73;;;9.60;99.90;;;9.23;94.92;101352.28;4151727;28;20393;-75
2021/03/26 05:47:19;;;;;;;3.75;1.98;;;9.60;99.90;;;9.25;95.54;101355.63;4151573;28;20054;-76
2021/03/26 05:49:58;;;;;;;3.70;1.70;;;9.60;99.90;;;9.29;95.07;101363.09;4151665;28;20014;-75
2021/03/26 05:52:46;;;;;;;5.72;1.63;;;9.60;99.90;;;9.26;95.67;101359.91;4151612;28;20044;-76
2021/03/26 05:55:39;;;;;;;2.85;1.40;;;9.60;99.90;;;9.25;95.54;101363.53;4151739;28;20037;-75
2021/03/26 05:58:14;;;;;;;5.60;3.08;;;9.70;99.90;;;9.34;95.00;101360.09;4159276;28;20029;-75
2021/03/26 06:00:38;;;;;;;;;;;9.70;99.90;;;9.28;95.48;101350.94;4157760;28;20030;-76
2021/03/26 06:03:19;;;;;;;5.15;1.60;;;9.70;99.90;;;9.40;95.30;101356.94;4140938;28;19911;-76
2021/03/26 06:05:34;;;;;;;3.33;1.67;;;9.80;99.90;;;9.51;94.94;101356.81;4156909;28;20412;-76
2021/03/26 06:08:48;;;;;;;7.25;1.67;;;9.90;99.90;;;9.48;95.41;101351.81;4154429;28;20037;-76
2021/03/26 06:11:19;;;;;;;4.75;1.75;;;9.90;99.90;;;9.40;95.12;101335.88;4104508;29;20633;-76
2021/03/26 06:14:02;;;;;;;2.35;1.38;;;9.90;99.90;;;9.38;95.94;101353.56;4136421;28;20521;-76
2021/03/26 06:16:16;;;;;;;2.63;1.33;;;9.80;99.90;;;9.55;95.25;101352.13;4154671;28;20117;-76
2021/03/26 06:19:13;;;;;;;2.73;1.53;;;9.90;99.90;;;9.64;94.70;101353.94;4137029;28;20521;-76
2021/03/26 06:21:38;;;;;;;3.08;1.52;;;9.90;99.90;;;9.51;95.19;101356.81;4154403;28;20423;-76
2021/03/26 06:24:27;;;;;;;4.07;1.70;;;10.00;99.90;;;9.44;95.32;101350.41;4154206;28;20036;-75
2021/03/26 06:26:31;;;;;;;3.15;1.38;;;10.00;99.90;;;9.47;96.35;101355.41;4137941;28;20053;-76
2021/03/26 06:29:02;;;;;;;2.70;1.50;;;10.00;99.90;;;9.68;94.85;101361.44;4154454;28;20437;-76
2021/03/26 06:31:41;;;;;;;4.15;1.40;;;10.10;99.90;;;9.53;95.47;101354.06;4154178;28;20029;-75
2021/03/26 06:34:20;;;;;;;5.10;1.42;;;10.10;99.90;;;9.63;96.47;101355.75;4139376;28;20477;-76
2021/03/26 06:36:35;;;;;;;4.13;1.58;;;10.20;99.90;;;9.62;96.42;101359.34;4154007;28;20049;-76
2021/03/26 06:38:53;;;;;;;5.53;1.77;;;10.20;99.90;;;9.64;96.31;101360.06;4137054;28;20027;-76
2021/03/26 06:41:42;;;;;;;3.55;1.75;;;10.20;99.90;;;9.72;96.76;101364.63;4153969;28;20382;-76
2021/03/26 06:44:31;;;;;;;6.03;1.60;;;10.30;99.90;;;9.83;96.39;101362.72;4153998;28;20401;-76
2021/03/26 06:46:57;;;;;;;3.72;1.60;;;10.40;99.90;;;9.90;95.82;101368.28;4137309;28;20026;-73
2021/03/26 06:49:29;;;;;;;4.53;1.60;;;10.40;99.90;;;9.89;96.46;101367.44;4138842;28;20026;-76
2021/03/26 06:52:17;;;;;;;2.95;1.52;;;10.50;99.90;;;9.85;96.54;101363.44;4137568;28;20030;-76
2021/03/26 06:54:53;;;;;;;6.38;2.42;;;10.50;99.90;;;9.88;96.65;101364.97;4138626;28;20121;-76
2021/03/26 06:57:30;;;;;;;;;;;10.50;99.90;;;9.88;96.31;101360.53;4153918;28;20042;-76
2021/03/26 06:59:52;;;;;;;8.07;2.55;;;10.50;99.90;;;9.90;96.44;101360.38;4161347;28;19917;-76
2021/03/26 07:02:18;;;;;;;6.88;1.85;;;10.60;99.90;;;9.97;97.28;101359.69;4169842;28;20033;-76
2021/03/26 07:04:45;;;;;;;5.70;1.52;;;10.60;99.90;;;9.94;96.51;101365.25;4171137;28;20026;-75
2021/03/26 07:07:48;;;;;;;4.47;1.70;;;10.70;99.90;;;10.02;96.67;101362.75;4152907;28;20032;-75
2021/03/26 07:10:00;;;;;;;2.83;1.50;;;10.70;99.90;;;10.04;96.68;101365.25;4152907;28;20030;-75
2021/03/26 07:12:28;;;;;;;3.28;2.13;;;10.70;99.90;;;10.15;96.62;101369.59;4153643;28;20485;-76
2021/03/26 07:14:54;;;;;;;4.55;1.35;;;10.80;99.90;;;10.19;95.51;101363.06;4138646;28;20034;-76
2021/03/26 07:17:48;;;;;;;3.92;1.60;;;10.80;99.90;;;10.18;95.01;101364.88;4135975;28;20088;-76
2021/03/26 07:20:14;;;;;;;3.72;1.65;;;10.90;99.90;;;10.27;95.34;101350.03;4153350;28;20095;-75
2021/03/26 07:22:48;;;;;;;4.13;1.60;;;11.00;99.90;;;10.28;94.42;101355.16;4153270;28;20028;-75
2021/03/26 07:25:09;;;;;;;5.90;1.70;;;11.00;99.90;;;10.33;94.43;101360.88;4153257;28;20037;-76
2021/03/26 07:27:31;;;;;;;6.28;1.90;;;11.10;99.90;;;10.36;94.19;101349.19;4152976;28;20030;-75
2021/03/26 07:30:04;;;;;;;3.03;1.40;;;11.10;99.90;;;10.38;93.53;101360.44;4153138;28;20030;-75
2021/03/26 07:32:32;;;;;;;2.13;1.60;;;11.10;99.90;;;10.49;93.74;101350.56;4153400;28;20061;-75
2021/03/26 07:35:08;;;;;;;3.50;1.63;;;11.20;99.90;;;10.52;93.64;101350.28;4136630;28;20050;-75
2021/03/26 07:37:34;;;;;;;;;;;11.30;99.90;;;10.55;93.46;101349.16;4138530;28;20026;-75
2021/03/26 07:39:56;;;;;;;3.17;1.70;;;11.40;99.90;;;10.54;93.46;101350.16;4152887;28;19917;-75
2021/03/26 07:42:14;;;;;;;4.90;1.67;;;11.40;99.90;;;10.50;93.25;101351.41;4136687;28;20598;-75
2021/03/26 07:44:49;;;;;;;3.92;2.05;;;11.30;99.90;;;10.21;95.01;101353.22;4151873;28;20029;-77
2021/03/26 07:47:38;;;;;;;2.33;1.40;;;11.20;99.90;;;10.18;95.61;101348.22;4152827;28;20042;-77
2021/03/26 07:50:12;;;;;;;2.53;1.50;;;11.10;99.90;;;10.20;95.99;101356.81;4126747;28;20122;-77
2021/03/26 07:52:22;;;;;;;5.10;1.73;;;11.10;99.90;;;10.32;95.70;101351.28;4152708;28;20075;-77
2021/03/26 07:54:41;;;;;;;6.80;1.80;;;11.10;99.90;;;10.42;94.93;101359.19;4153138;28;20519;-77
2021/03/26 07:57:03;;;;;;;8.25;2.15;;;11.20;99.90;;;10.51;94.87;101348.59;4152764;28;20053;-77
2021/03/26 07:59:26;;;;;;;5.63;2.10;;;11.30;99.90;;;10.54;94.48;101353.59;4156637;28;20060;-77
2021/03/26 08:02:08;;;;;;;6.00;1.80;;;11.50;99.90;;;10.46;95.20;101358.75;4135452;28;20031;-77
2021/03/26 08:04:22;;;;;;;3.70;1.67;;;11.50;99.90;;;10.36;94.85;101344.72;4134954;28;20061;-77
2021/03/26 08:07:19;;;;;;;4.45;1.63;;;11.50;99.90;;;10.61;94.56;101351.25;4135915;28;20420;-77
2021/03/26 08:09:48;;;;;;;6.28;2.08;;;11.50;99.90;;;10.78;93.67;101354.97;4152721;28;20037;-76
2021/03/26 08:12:14;;;;;;;3.72;1.75;;;11.70;99.90;;;10.86;92.54;101353.28;4152506;28;20018;-77
2021/03/26 08:14:48;;;;;;;4.03;1.70;;;11.70;99.90;;;10.76;92.58;101347.19;4152554;28;20044;-76
2021/03/26 08:17:22;;;;;;;5.00;1.77;;;11.80;99.90;;;10.60;93.64;101351.41;4152699;28;20034;-76
2021/03/26 08:19:56;;;;;;;3.75;1.60;;;11.60;99.90;;;10.69;93.67;101347.91;4152487;28;20072;-77
2021/03/26 08:22:17;;;;;;;3.17;1.52;;;11.60;99.90;;;10.70;93.59;101349.56;4152007;28;20109;-76
2021/03/26 08:25:05;;;;;;;4.15;1.92;;;11.50;99.90;;;10.57;93.28;101344.59;4152396;28;20038;-76
2021/03/26 08:27:36;;;;;;;3.15;1.55;;;11.40;99.90;;;10.65;93.33;101344.72;4152471;28;20500;-76
2021/03/26 08:30:27;;;;;;;5.95;2.22;;;11.40;99.90;;;10.71;93.61;101343.31;4148780;28;20042;-77
2021/03/26 08:33:41;;;;;;;4.55;2.33;;;11.50;99.90;;;10.77;92.39;101343.59;4134872;28;20529;-77
2021/03/26 08:36:11;;;;;;;6.43;1.70;;;11.50;99.90;;;10.78;92.76;101339.16;4102242;28;20047;-76
2021/03/26 08:39:09;;;;;;;3.65;1.50;;;11.60;99.90;;;10.95;92.22;101338.38;4132168;28;20513;-77
2021/03/26 08:41:25;;;;;;;6.53;1.67;;;11.70;99.90;;;11.24;90.97;101336.47;4152271;28;20132;-76
2021/03/26 08:43:30;;;;;;;5.60;2.75;;;12.00;99.90;;;11.34;89.80;101328.50;4135438;28;20556;-76
2021/03/26 08:45:42;;;;;;;3.70;1.60;;;12.30;99.90;;;11.54;89.02;101340.63;4134960;28;20125;-76
2021/03/26 08:47:51;;;;;;;5.68;2.15;;;12.50;99.90;;;11.48;88.37;101333.28;4135043;28;20034;-76
2021/03/26 08:50:52;;;;;;;3.40;1.90;;;12.50;99.90;;;11.37;89.35;101330.84;4152060;28;20029;-76
2021/03/26 08:53:36;;;;;;;3.20;1.67;;;12.50;99.90;;;11.37;86.66;101325.56;4120254;28;20042;-76
2021/03/26 08:56:09;;;;;;;5.30;1.45;;;12.40;99.90;;;11.37;86.59;101336.13;4152025;28;20061;-76
2021/03/26 08:58:28;;;;;;;5.03;1.88;;;12.40;99.90;;;11.50;87.30;101337.44;4142894;28;20065;-77
2021/03/26 09:00:56;;;;;;;3.42;1.73;;;12.40;99.90;;;11.53;86.15;101336.31;4152987;28;20034;-76
2021/03/26 09:03:41;;;;;;;3.67;1.50;;;12.50;99.90;;;11.79;86.72;101339.97;4159238;28;20484;-76
2021/03/26 09:06:07;;;;;;;4.68;1.25;;;12.70;99.90;;;11.96;83.76;101328.56;4156323;28;20033;-76
2021/03/26 09:08:47;;;;;;;3.63;1.65;;;13.00;99.90;;;12.08;83.34;101340.59;4168268;28;20030;-76
2021/03/26 09:11:02;;;;;;;3.95;1.60;;;13.20;99.90;;;12.20;84.24;101342.03;4145296;28;20492;-76
2021/03/26 09:13:32;;;;;;;5.93;1.95;;;13.40;99.90;;;12.21;84.28;101338.38;4168273;28;20053;-76
2021/03/26 09:15:46;;;;;;;5.82;1.70;;;13.50;99.90;;;12.15;84.65;101338.16;4136639;28;20113;-76
2021/03/26 09:17:50;;;;;;;6.85;1.40;;;13.60;99.90;;;12.18;85.00;101336.03;4150742;28;20092;-76
2021/03/26 09:20:16;;;;;;;6.20;2.83;;;13.60;99.90;;;12.26;83.92;101337.09;4168163;28;20045;-76
2021/03/26 09:23:08;;;;;;;3.90;2.05;;;13.60;99.90;;;12.23;84.23;101340.03;4152640;28;20026;-76
2021/03/26 09:25:44;;;;;;;7.45;1.50;;;13.60;99.90;;;12.29;83.65;101334.16;4118396;28;20041;-76
2021/03/26 09:27:45;;;;;;;7.43;2.05;;;13.60;99.90;;;12.13;81.86;101329.53;4152931;28;20069;-77
2021/03/26 09:30:15;;;;;;;3.28;1.58;;;13.50;99.90;;;12.14;83.20;101339.97;4134322;28;20561;-76
2021/03/26 09:32:28;;;;;;;5.05;1.92;;;13.50;99.90;;;12.50;82.00;101345.25;4154416;28;20556;-76
2021/03/26 09:34:34;;;;;;;4.15;1.52;;;13.60;99.90;;;12.58;80.95;101342.63;4154421;28;20370;-76
2021/03/26 09:36:46;;;;;;;5.35;1.40;;;13.90;99.90;;;12.31;78.73;101311.00;4153890;28;20033;-76
2021/03/26 09:38:58;;;;;;;3.85;1.50;;;13.90;99.90;;;12.74;78.96;101335.66;4153888;28;20068;-76
2021/03/26 09:41:31;;;;;;;8.43;1.92;;;14.10;99.90;;;12.66;78.60;101342.72;4154835;28;20021;-76
2021/03/26 09:44:08;;;;;;;4.35;1.40;;;14.20;99.90;;;12.33;79.79;101346.94;4157637;28;20030;-76
2021/03/26 09:46:16;;;;;;;3.58;1.50;;;14.00;99.90;;;12.58;80.23;101337.34;4171200;28;20060;-76